createdAt,value
2022-11-09T00:01:21.622Z,96889.63
2022-11-09T00:03:48.033Z,96892.56
2022-11-09T00:06:15.481Z,96886.91
2022-11-09T00:08:41.976Z,96887.00
2022-11-09T00:11:08.397Z,96882.63
2022-11-09T00:13:34.893Z,96895.22
2022-11-09T00:16:02.915Z,96890.50
2022-11-09T00:18:29.427Z,96870.34
2022-11-09T00:20:55.808Z,96849.41
2022-11-09T00:23:22.479Z,96851.56
2022-11-09T00:25:49.165Z,96867.56
2022-11-09T00:28:15.626Z,96891.69
2022-11-09T00:30:42.027Z,96893.69
2022-11-09T00:33:08.459Z,96891.22
2022-11-09T00:35:34.999Z,96872.78
2022-11-09T00:38:01.665Z,96852.75
2022-11-09T00:40:28.249Z,96849.34
2022-11-09T00:42:54.681Z,96845.31
2022-11-09T00:45:23.877Z,96821.78
2022-11-09T00:47:50.276Z,96817.31
2022-11-09T00:50:16.710Z,96825.00
2022-11-09T00:52:43.184Z,96850.88
2022-11-09T00:55:09.610Z,96856.91
2022-11-09T00:57:38.204Z,96857.13
2022-11-09T01:00:04.707Z,96866.31
2022-11-09T01:02:31.216Z,96873.47
2022-11-09T01:04:57.654Z,96865.25
2022-11-09T01:07:29.919Z,96852.78
2022-11-09T01:09:56.283Z,96828.31
2022-11-09T01:12:22.680Z,96813.00
2022-11-09T01:14:49.235Z,96803.94
2022-11-09T01:17:15.704Z,96797.13
2022-11-09T01:19:42.270Z,96797.13
2022-11-09T01:22:08.722Z,96807.13
2022-11-09T01:24:35.268Z,96818.53
2022-11-09T01:27:04.627Z,96827.13
2022-11-09T01:29:31.057Z,96835.97
2022-11-09T01:31:57.619Z,96845.72
2022-11-09T01:34:24.091Z,96838.44
2022-11-09T01:36:50.509Z,96841.72
2022-11-09T01:39:17.036Z,96842.06
2022-11-09T01:41:43.445Z,96839.69
2022-11-09T01:44:11.243Z,96845.09
2022-11-09T01:46:37.729Z,96842.41
2022-11-09T01:49:04.184Z,96840.28
2022-11-09T01:51:30.636Z,96833.22
2022-11-09T01:53:57.172Z,96830.03
2022-11-09T01:56:23.584Z,96826.84
2022-11-09T01:58:50.034Z,96832.84
2022-11-09T02:01:16.536Z,96827.91
2022-11-09T02:03:43.022Z,96837.34
2022-11-09T02:06:09.530Z,96850.03
2022-11-09T02:08:36.083Z,96847.31
2022-11-09T02:11:02.523Z,96858.16
2022-11-09T02:13:29.033Z,96871.69
2022-11-09T02:15:55.463Z,96883.00
2022-11-09T02:18:21.913Z,96884.41
2022-11-09T02:20:48.385Z,96881.81
2022-11-09T02:23:14.868Z,96873.69
2022-11-09T02:25:41.347Z,96884.72
2022-11-09T02:28:07.820Z,96873.72
2022-11-09T02:30:34.258Z,96877.00
2022-11-09T02:33:00.738Z,96886.00
2022-11-09T02:35:27.141Z,96888.22
2022-11-09T02:37:53.615Z,96896.28
2022-11-09T02:40:20.079Z,96884.53
2022-11-09T02:42:46.579Z,96882.53
2022-11-09T02:45:13.110Z,96892.56
2022-11-09T02:47:39.565Z,96880.81
2022-11-09T02:50:06.063Z,96892.31
2022-11-09T02:52:32.505Z,96893.16
2022-11-09T02:54:58.936Z,96890.31
2022-11-09T02:57:25.428Z,96905.38
2022-11-09T02:59:51.871Z,96895.63
2022-11-09T03:02:18.333Z,96889.16
2022-11-09T03:04:44.874Z,96897.81
2022-11-09T03:07:11.315Z,96892.28
2022-11-09T03:09:37.808Z,96891.56
2022-11-09T03:12:04.236Z,96880.38
2022-11-09T03:14:30.706Z,96873.47
2022-11-09T03:16:57.156Z,96871.91
2022-11-09T03:19:23.611Z,96868.13
2022-11-09T03:21:50.095Z,96875.91
2022-11-09T03:24:18.905Z,96879.19
2022-11-09T03:26:45.419Z,96881.47
2022-11-09T03:29:12.486Z,96887.69
2022-11-09T03:31:38.989Z,96889.34
2022-11-09T03:34:05.421Z,96892.66
2022-11-09T03:36:31.875Z,96897.69
2022-11-09T03:38:58.459Z,96902.78
2022-11-09T03:41:24.961Z,96910.19
2022-11-09T03:43:51.449Z,96910.19
2022-11-09T03:46:17.965Z,96912.88
2022-11-09T03:48:47.373Z,96914.44
2022-11-09T03:51:13.869Z,96925.72
2022-11-09T03:53:40.235Z,96928.09
2022-11-09T03:56:06.753Z,96935.28
2022-11-09T03:58:33.137Z,96933.38
2022-11-09T04:00:59.665Z,96941.97
2022-11-09T04:03:26.123Z,96947.47
2022-11-09T04:05:52.595Z,96944.53
2022-11-09T04:08:19.072Z,96955.94
2022-11-09T04:10:45.577Z,96961.56
2022-11-09T04:13:12.100Z,96966.47
2022-11-09T04:15:38.534Z,96978.81
2022-11-09T04:18:04.940Z,96989.84
2022-11-09T04:20:31.496Z,96990.88
2022-11-09T04:23:00.678Z,96995.09
2022-11-09T04:25:27.127Z,96997.78
2022-11-09T04:27:53.588Z,96998.09
2022-11-09T04:30:20.010Z,97001.28
2022-11-09T04:32:46.522Z,97004.75
2022-11-09T04:35:14.212Z,97010.97
2022-11-09T04:37:40.631Z,97005.09
2022-11-09T04:40:07.462Z,97016.88
2022-11-09T04:42:33.928Z,97019.47
2022-11-09T04:45:00.444Z,97021.88
2022-11-09T04:47:26.960Z,97038.00
2022-11-09T04:49:53.379Z,97029.19
2022-11-09T04:52:19.808Z,97047.50
2022-11-09T04:54:46.272Z,97052.56
2022-11-09T04:57:12.716Z,97066.44
2022-11-09T04:59:39.178Z,97073.34
2022-11-09T05:02:05.672Z,97065.69
2022-11-09T05:04:32.174Z,97055.00
2022-11-09T05:06:58.670Z,97064.38
2022-11-09T05:09:25.247Z,97049.06
2022-11-09T05:11:51.656Z,97054.69
2022-11-09T05:14:18.124Z,97047.28
2022-11-09T05:16:44.537Z,97042.91
2022-11-09T05:19:10.988Z,97032.72
2022-11-09T05:21:37.374Z,97029.22
2022-11-09T05:24:03.781Z,97038.72
2022-11-09T05:26:30.248Z,97056.41
2022-11-09T05:28:56.718Z,97079.09
2022-11-09T05:31:26.802Z,97095.88
2022-11-09T05:33:53.305Z,97097.88
2022-11-09T05:36:19.845Z,97097.97
2022-11-09T05:38:46.277Z,97103.13
2022-11-09T05:41:12.701Z,97091.88
2022-11-09T05:43:39.297Z,97081.06
2022-11-09T05:46:08.493Z,97092.31
2022-11-09T05:48:34.928Z,97097.91
2022-11-09T05:51:01.433Z,97105.59
2022-11-09T05:53:27.952Z,97114.50
2022-11-09T05:55:54.481Z,97113.69
2022-11-09T05:58:20.929Z,97100.78
2022-11-09T06:00:47.470Z,97099.34
2022-11-09T06:03:13.893Z,97087.50
2022-11-09T06:05:40.337Z,97079.63
2022-11-09T06:08:06.785Z,97065.31
2022-11-09T06:10:33.207Z,97060.94
2022-11-09T06:12:59.632Z,97055.59
2022-11-09T06:15:26.062Z,97061.06
2022-11-09T06:17:54.757Z,97060.66
2022-11-09T06:20:21.197Z,97059.81
2022-11-09T06:22:48.190Z,97061.69
2022-11-09T06:25:14.681Z,97060.66
2022-11-09T06:27:41.056Z,97069.81
2022-11-09T06:30:07.528Z,97068.75
2022-11-09T06:32:36.720Z,97066.88
2022-11-09T06:35:03.226Z,97069.72
2022-11-09T06:37:29.743Z,97064.91
2022-11-09T06:39:56.247Z,97057.78
2022-11-09T06:42:22.735Z,97052.38
2022-11-09T06:44:49.199Z,97049.22
2022-11-09T06:47:17.086Z,97043.22
2022-11-09T06:49:46.277Z,97045.06
2022-11-09T06:52:12.671Z,97049.44
2022-11-09T06:54:39.133Z,97047.53
2022-11-09T06:57:05.577Z,97054.75
2022-11-09T06:59:32.077Z,97068.28
2022-11-09T07:02:01.454Z,97057.94
2022-11-09T07:04:29.738Z,97061.91
2022-11-09T07:06:56.341Z,97061.28
2022-11-09T07:09:22.865Z,97068.34
2022-11-09T07:11:49.353Z,97063.75
2022-11-09T07:14:21.650Z,97061.75
2022-11-09T07:16:48.181Z,97065.06
2022-11-09T07:19:14.600Z,97071.28
2022-11-09T07:21:41.086Z,97079.38
2022-11-09T07:24:07.519Z,97079.16
2022-11-09T07:26:34.079Z,97091.97
2022-11-09T07:29:00.558Z,97095.53
2022-11-09T07:31:26.981Z,97095.28
2022-11-09T07:33:53.426Z,97090.53
2022-11-09T07:36:21.619Z,97093.06
2022-11-09T07:38:48.398Z,97100.47
2022-11-09T07:41:17.010Z,97111.28
2022-11-09T07:43:43.464Z,97099.19
2022-11-09T07:46:12.765Z,97099.53
2022-11-09T07:48:39.180Z,97089.78
2022-11-09T07:51:06.302Z,97089.78
2022-11-09T07:53:32.753Z,97087.78
2022-11-09T07:55:59.173Z,97082.91
2022-11-09T07:58:25.640Z,97085.31
2022-11-09T08:00:52.069Z,97092.06
2022-11-09T08:03:18.838Z,97098.22
2022-11-09T08:05:45.568Z,97096.69
2022-11-09T08:08:14.436Z,97101.75
2022-11-09T08:10:40.866Z,97113.00
2022-11-09T08:13:08.184Z,97109.78
2022-11-09T08:15:34.609Z,97106.84
2022-11-09T08:18:01.012Z,97101.78
2022-11-09T08:20:28.157Z,97096.84
2022-11-09T08:22:57.318Z,97084.75
2022-11-09T08:25:25.969Z,97079.81
2022-11-09T08:27:52.386Z,97082.59
2022-11-09T08:30:18.817Z,97074.63
2022-11-09T08:32:45.215Z,97083.56
2022-11-09T08:35:11.707Z,97083.47
2022-11-09T08:37:38.100Z,97076.19
2022-11-09T08:40:04.645Z,97083.25
2022-11-09T08:42:31.162Z,97086.53
2022-11-09T08:44:57.619Z,97088.50
2022-11-09T08:47:24.035Z,97084.88
2022-11-09T08:49:50.461Z,97072.78
2022-11-09T08:52:16.921Z,97081.13
2022-11-09T08:54:43.344Z,97082.31
2022-11-09T08:57:10.087Z,97071.75
2022-11-09T08:59:36.584Z,97067.16
2022-11-09T09:02:03.165Z,97072.94
2022-11-09T09:04:29.767Z,97068.00
2022-11-09T09:06:56.237Z,97058.63
2022-11-09T09:09:22.758Z,97060.47
2022-11-09T09:11:49.198Z,97057.41
2022-11-09T09:14:15.625Z,97065.78
2022-11-09T09:16:42.127Z,97056.25
2022-11-09T09:19:08.569Z,97053.00
2022-11-09T09:21:35.055Z,97056.06
2022-11-09T09:24:01.564Z,97063.84
2022-11-09T09:26:28.015Z,97064.00
2022-11-09T09:28:55.468Z,97071.88
2022-11-09T09:31:21.906Z,97065.75
2022-11-09T09:33:48.427Z,97070.19
2022-11-09T09:36:14.943Z,97061.75
2022-11-09T09:38:42.467Z,97066.78
2022-11-09T09:41:09.029Z,97067.72
2022-11-09T09:43:41.431Z,97058.22
2022-11-09T09:46:09.362Z,97064.47
2022-11-09T09:48:35.858Z,97061.38
2022-11-09T09:51:02.378Z,97058.91
2022-11-09T09:53:28.818Z,97056.41
2022-11-09T09:55:55.617Z,97056.66
2022-11-09T09:58:22.383Z,97040.78
2022-11-09T10:00:49.022Z,97052.06
2022-11-09T10:03:15.584Z,97058.31
2022-11-09T10:05:42.063Z,97064.88
2022-11-09T10:08:08.552Z,97076.94
2022-11-09T10:10:35.187Z,97074.44
2022-11-09T10:13:02.976Z,97077.50
2022-11-09T10:15:29.538Z,97087.41
2022-11-09T10:17:56.127Z,97096.47
2022-11-09T10:20:22.732Z,97076.22
2022-11-09T10:22:49.287Z,97061.50
2022-11-09T10:25:32.092Z,97049.97
2022-11-09T10:27:59.047Z,97031.59
2022-11-09T10:30:25.491Z,97029.63
2022-11-09T10:32:51.980Z,97030.78
2022-11-09T10:35:18.472Z,97029.41
2022-11-09T10:37:44.980Z,97031.91
2022-11-09T10:40:11.558Z,97024.97
2022-11-09T10:42:39.011Z,97039.91
2022-11-09T10:45:05.488Z,97040.88
2022-11-09T10:47:32.023Z,97038.56
2022-11-09T10:49:58.558Z,97044.69
2022-11-09T10:52:25.054Z,97045.72
2022-11-09T10:54:51.940Z,97057.69
2022-11-09T10:57:18.545Z,97048.75
2022-11-09T10:59:49.273Z,97043.66
2022-11-09T11:02:15.864Z,97036.19
2022-11-09T11:04:42.381Z,97030.34
2022-11-09T11:07:10.093Z,97017.44
2022-11-09T11:09:36.671Z,97017.19
2022-11-09T11:12:03.243Z,97008.41
2022-11-09T11:14:31.079Z,97007.03
2022-11-09T11:16:59.600Z,97002.91
2022-11-09T11:19:26.135Z,96999.41
2022-11-09T11:21:52.856Z,97000.44
2022-11-09T11:24:19.381Z,97001.16
2022-11-09T11:26:45.912Z,97008.25
2022-11-09T11:29:12.392Z,97012.19
2022-11-09T11:31:38.928Z,97007.03
2022-11-09T11:34:05.524Z,97005.63
2022-11-09T11:36:32.102Z,97008.81
2022-11-09T11:39:01.320Z,97011.38
2022-11-09T11:41:27.801Z,97008.91
2022-11-09T11:43:54.330Z,97006.44
2022-11-09T11:46:20.762Z,97014.81
2022-11-09T11:48:47.300Z,97012.13
2022-11-09T11:51:13.776Z,97015.75
2022-11-09T11:53:43.357Z,97017.91
2022-11-09T11:56:10.504Z,97017.53
2022-11-09T11:58:38.367Z,97027.00
2022-11-09T12:01:06.025Z,97024.19
2022-11-09T12:03:33.577Z,97022.88
2022-11-09T12:06:00.103Z,97021.38
2022-11-09T12:08:26.851Z,97020.91
2022-11-09T12:10:53.529Z,97015.88
2022-11-09T12:13:20.422Z,97019.06
2022-11-09T12:15:47.083Z,97029.03
2022-11-09T12:18:13.627Z,97035.03
2022-11-09T12:20:40.050Z,97035.84
2022-11-09T12:23:06.826Z,97039.16
2022-11-09T12:25:33.301Z,97027.03
2022-11-09T12:27:59.951Z,97032.00
2022-11-09T12:30:26.478Z,97027.66
2022-11-09T12:32:54.463Z,97035.91
2022-11-09T12:35:20.962Z,97021.91
2022-11-09T12:37:47.475Z,97025.34
2022-11-09T12:40:16.267Z,97029.31
2022-11-09T12:42:42.831Z,97030.59
2022-11-09T12:45:10.668Z,97043.25
2022-11-09T12:47:37.177Z,97057.97
2022-11-09T12:50:04.704Z,97045.84
2022-11-09T12:52:31.218Z,97049.63
2022-11-09T12:55:00.511Z,97056.91
2022-11-09T12:57:29.884Z,97046.91
2022-11-09T12:59:56.452Z,97050.09
2022-11-09T13:02:25.031Z,97048.56
2022-11-09T13:04:51.499Z,97045.88
2022-11-09T13:07:18.196Z,97042.22
2022-11-09T13:09:45.401Z,97041.97
2022-11-09T13:12:16.154Z,97039.28
2022-11-09T13:14:44.381Z,97036.22
2022-11-09T13:17:10.934Z,97043.63
2022-11-09T13:19:37.371Z,97039.28
2022-11-09T13:22:03.807Z,97034.72
2022-11-09T13:24:30.315Z,97032.44
2022-11-09T13:26:56.843Z,97032.59
2022-11-09T13:29:23.317Z,97038.59
2022-11-09T13:31:52.558Z,97041.75
2022-11-09T13:34:23.415Z,97049.13
2022-11-09T13:36:49.842Z,97052.78
2022-11-09T13:39:16.453Z,97055.03
2022-11-09T13:41:45.731Z,97080.22
2022-11-09T13:46:39.101Z,97088.56
2022-11-09T13:49:05.739Z,97101.00
2022-11-09T13:51:32.471Z,97104.91
2022-11-09T13:53:59.070Z,97111.00
2022-11-09T13:56:27.491Z,97118.31
2022-11-09T13:58:54.142Z,97113.47
2022-11-09T14:01:22.161Z,97120.16
2022-11-09T14:03:48.749Z,97123.34
2022-11-09T14:06:15.187Z,97121.69
2022-11-09T14:08:41.813Z,97119.19
2022-11-09T14:11:08.368Z,97121.91
2022-11-09T14:13:34.862Z,97121.78
2022-11-09T14:16:01.431Z,97130.72
2022-11-09T14:18:27.963Z,97132.22
2022-11-09T14:20:54.425Z,97127.44
2022-11-09T14:23:20.857Z,97125.78
2022-11-09T14:25:47.422Z,97123.88
2022-11-09T14:28:13.864Z,97119.97
2022-11-09T14:30:40.347Z,97115.34
2022-11-09T14:33:06.813Z,97111.28
2022-11-09T14:35:33.298Z,97110.31
2022-11-09T14:37:59.806Z,97129.84
2022-11-09T14:40:26.231Z,97141.78
2022-11-09T14:42:52.671Z,97134.41
2022-11-09T14:45:19.201Z,97142.91
2022-11-09T14:47:45.748Z,97139.00
2022-11-09T14:50:12.218Z,97147.00
2022-11-09T14:52:38.805Z,97143.56
2022-11-09T14:55:05.291Z,97153.34
2022-11-09T14:57:31.792Z,97160.41
2022-11-09T14:59:58.265Z,97176.63
2022-11-09T15:02:24.774Z,97179.34
2022-11-09T15:04:51.454Z,97190.28
2022-11-09T15:07:18.006Z,97189.47
2022-11-09T15:09:44.490Z,97198.19
2022-11-09T15:12:10.934Z,97196.53
2022-11-09T15:14:37.393Z,97203.94
2022-11-09T15:17:03.845Z,97217.19
2022-11-09T15:19:30.413Z,97207.56
2022-11-09T15:21:56.942Z,97197.78
2022-11-09T15:24:23.423Z,97204.78
2022-11-09T15:26:49.902Z,97212.88
2022-11-09T15:29:16.463Z,97218.28
2022-11-09T15:31:45.816Z,97219.88
2022-11-09T15:34:12.258Z,97233.41
2022-11-09T15:36:40.912Z,97243.69
2022-11-09T15:39:11.329Z,97245.03
2022-11-09T15:41:37.830Z,97260.13
2022-11-09T15:44:04.412Z,97253.44
2022-11-09T15:46:31.382Z,97269.00
2022-11-09T15:48:57.909Z,97271.47
2022-11-09T15:51:24.407Z,97274.75
2022-11-09T15:53:50.896Z,97279.34
2022-11-09T15:56:20.124Z,97279.34
2022-11-09T15:58:46.744Z,97279.34
2022-11-09T16:01:13.337Z,97285.56
2022-11-09T16:03:39.794Z,97284.38
2022-11-09T16:06:09.096Z,97285.66
2022-11-09T16:08:35.644Z,97295.03
2022-11-09T16:11:04.755Z,97287.75
2022-11-09T16:13:31.247Z,97289.41
2022-11-09T16:15:57.908Z,97282.97
2022-11-09T16:18:26.059Z,97276.03
2022-11-09T16:20:52.890Z,97273.31
2022-11-09T16:23:19.510Z,97259.97
2022-11-09T16:25:46.014Z,97255.47
2022-11-09T16:28:12.590Z,97250.06
2022-11-09T16:30:42.889Z,97241.56
2022-11-09T16:33:12.077Z,97238.75
2022-11-09T16:35:38.545Z,97217.69
2022-11-09T16:38:05.203Z,97211.91
2022-11-09T16:40:31.721Z,97209.00
2022-11-09T16:42:58.250Z,97187.44
2022-11-09T16:45:35.262Z,97171.81
2022-11-09T16:51:01.084Z,97206.53
2022-11-09T16:53:31.801Z,97210.94
2022-11-09T16:58:52.215Z,97224.13
2022-11-09T17:04:08.169Z,97258.94
2022-11-09T17:09:49.903Z,97274.34
2022-11-09T17:12:17.014Z,97281.72
2022-11-09T17:14:43.613Z,97270.84
2022-11-09T17:17:58.617Z,97282.72
2022-11-09T17:19:57.603Z,97283.69
2022-11-09T17:22:26.183Z,97288.25
2022-11-09T17:24:53.987Z,97283.06
2022-11-09T17:27:20.597Z,97281.28
2022-11-09T17:29:47.200Z,97284.25
2022-11-09T17:32:13.870Z,97279.47
2022-11-09T17:34:40.353Z,97289.34
2022-11-09T17:37:07.114Z,97281.47
2022-11-09T17:39:34.961Z,97287.00
2022-11-09T17:42:01.533Z,97293.69
2022-11-09T17:44:28.320Z,97305.22
2022-11-09T17:46:56.392Z,97292.69
2022-11-09T17:50:09.913Z,97303.63
2022-11-09T17:52:10.358Z,97291.34
2022-11-09T17:54:38.530Z,97284.41
2022-11-09T17:57:06.461Z,97290.78
2022-11-09T17:59:33.397Z,97291.78
2022-11-09T18:02:00.299Z,97291.25
2022-11-09T18:04:26.874Z,97296.00
2022-11-09T18:06:56.617Z,97291.19
2022-11-09T18:12:09.726Z,97296.13
2022-11-09T18:14:37.418Z,97297.84
2022-11-09T18:17:04.060Z,97312.34
2022-11-09T18:19:31.558Z,97322.94
2022-11-09T18:22:02.466Z,97323.63
2022-11-09T18:24:29.700Z,97324.84
2022-11-09T18:26:57.329Z,97326.50
2022-11-09T18:29:23.772Z,97330.81
2022-11-09T18:31:51.476Z,97333.75
2022-11-09T18:34:17.982Z,97337.31
2022-11-09T18:36:44.493Z,97332.72
2022-11-09T18:39:10.941Z,97327.81
2022-11-09T18:41:37.505Z,97334.88
2022-11-09T18:44:04.028Z,97335.47
2022-11-09T18:46:30.676Z,97331.94
2022-11-09T18:48:57.255Z,97334.88
2022-11-09T18:51:23.827Z,97334.88
2022-11-09T18:53:50.496Z,97330.50
2022-11-09T18:56:17.248Z,97332.41
2022-11-09T18:58:43.996Z,97334.88
2022-11-09T19:01:10.954Z,97337.34
2022-11-09T19:03:37.544Z,97338.41
2022-11-09T19:06:13.276Z,97344.47
2022-11-09T19:08:39.845Z,97352.56
2022-11-09T19:14:56.201Z,97369.50
2022-11-09T19:18:15.882Z,97371.75
2022-11-09T19:19:27.864Z,97370.50
2022-11-09T19:27:37.763Z,97374.66
2022-11-09T19:30:09.192Z,97360.91
2022-11-09T19:32:37.330Z,97369.00
2022-11-09T19:35:06.952Z,97367.97
2022-11-09T19:37:33.463Z,97368.78
2022-11-09T19:39:59.969Z,97377.34
2022-11-09T19:42:27.595Z,97384.22
2022-11-09T19:44:56.563Z,97376.75
2022-11-09T19:47:34.350Z,97381.53
2022-11-09T19:58:43.008Z,97390.31
2022-11-09T20:01:59.104Z,97392.16
2022-11-09T20:04:22.023Z,97399.44
2022-11-09T20:09:28.275Z,97404.19
2022-11-09T20:11:54.860Z,97406.88
2022-11-09T20:14:43.921Z,97411.69
2022-11-09T20:17:15.248Z,97418.13
2022-11-09T20:20:12.418Z,97416.69
2022-11-09T20:24:04.824Z,97428.13
2022-11-09T20:25:17.212Z,97428.13
2022-11-09T20:27:43.836Z,97425.44
2022-11-09T20:30:22.277Z,97434.78
2022-11-09T20:32:53.274Z,97436.91
2022-11-09T20:35:19.966Z,97437.94
2022-11-09T20:37:46.653Z,97440.63
2022-11-09T20:40:15.152Z,97437.94
2022-11-09T20:42:44.427Z,97449.56
2022-11-09T20:45:17.879Z,97449.63
2022-11-09T20:48:07.222Z,97453.75
2022-11-09T20:50:41.320Z,97460.44
2022-11-09T20:53:07.872Z,97464.75
2022-11-09T20:55:34.451Z,97472.66
2022-11-09T20:58:01.023Z,97465.16
2022-11-09T21:00:27.645Z,97469.31
2022-11-09T21:03:00.268Z,97472.25
2022-11-09T21:05:31.229Z,97472.44
2022-11-09T21:07:59.291Z,97477.84
2022-11-09T21:10:36.600Z,97485.53
2022-11-09T21:13:03.234Z,97483.63
2022-11-09T21:15:36.324Z,97471.16
2022-11-09T21:18:03.821Z,97475.53
2022-11-09T22:54:58.332Z,97520.88
2022-11-09T23:00:07.904Z,97532.50
2022-11-09T23:02:34.439Z,97538.72
2022-11-09T23:05:05.243Z,97537.91
2022-11-09T23:07:35.956Z,97544.56
2022-11-09T23:10:06.680Z,97541.84
2022-11-09T23:12:33.088Z,97532.72
2022-11-09T23:15:03.828Z,97527.09
2022-11-09T23:17:30.247Z,97523.13
2022-11-09T23:19:56.667Z,97529.78
2022-11-09T23:22:29.234Z,97531.03
2022-11-09T23:24:57.899Z,97532.28
2022-11-09T23:27:24.258Z,97532.50
2022-11-09T23:29:50.718Z,97522.97
2022-11-09T23:32:27.900Z,97524.84
2022-11-09T23:37:38.706Z,97524.03
2022-11-09T23:40:07.545Z,97526.09
2022-11-09T23:43:29.757Z,97520.09
2022-11-09T23:45:24.989Z,97529.88
2022-11-09T23:47:53.453Z,97531.94
2022-11-09T23:50:19.942Z,97531.91
2022-11-09T23:52:46.933Z,97528.63
2022-11-09T23:55:15.549Z,97531.34
2022-11-09T23:57:43.079Z,97552.28
